createdAt,value
2023-04-02T00:01:51.622Z,100.00
2023-04-02T00:04:23.097Z,100.00
2023-04-02T00:07:15.326Z,100.00
2023-04-02T00:09:42.084Z,100.00
2023-04-02T00:12:18.120Z,100.00
2023-04-02T00:14:54.827Z,100.00
2023-04-02T00:17:24.651Z,100.00
2023-04-02T00:19:53.175Z,100.00
2023-04-02T00:22:22.639Z,100.00
2023-04-02T00:24:54.157Z,100.00
2023-04-02T00:27:21.323Z,100.00
2023-04-02T00:29:58.236Z,100.00
2023-04-02T00:32:27.431Z,100.00
2023-04-02T00:34:55.477Z,100.00
2023-04-02T00:37:28.245Z,100.00
2023-04-02T00:40:07.062Z,100.00
2023-04-02T00:42:35.833Z,100.00
2023-04-02T00:45:02.648Z,100.00
2023-04-02T00:47:36.520Z,100.00
2023-04-02T00:50:18.412Z,100.00
2023-04-02T00:52:48.040Z,100.00
2023-04-02T00:55:27.050Z,100.00
2023-04-02T00:58:01.078Z,100.00
2023-04-02T01:00:30.711Z,100.00
2023-04-02T01:03:13.013Z,100.00
2023-04-02T01:05:42.375Z,100.00
2023-04-02T01:08:25.802Z,100.00
2023-04-02T01:11:24.053Z,100.00
2023-04-02T01:14:12.065Z,100.00
2023-04-02T01:16:50.625Z,100.00
2023-04-02T01:19:35.473Z,100.00
2023-04-02T01:22:23.103Z,100.00
2023-04-02T01:24:49.773Z,100.00
2023-04-02T01:27:26.597Z,100.00
2023-04-02T01:29:56.659Z,100.00
2023-04-02T01:32:25.766Z,100.00
2023-04-02T01:34:52.879Z,100.00
2023-04-02T01:37:52.670Z,100.00
2023-04-02T01:40:40.231Z,100.00
2023-04-02T01:43:54.976Z,100.00
2023-04-02T01:46:31.985Z,100.00
2023-04-02T01:49:02.542Z,100.00
2023-04-02T01:51:33.847Z,100.00
2023-04-02T01:54:06.090Z,100.00
2023-04-02T01:56:32.625Z,100.00
2023-04-02T01:59:00.291Z,100.00
2023-04-02T02:01:42.267Z,100.00
2023-04-02T02:04:13.747Z,100.00
2023-04-02T02:06:40.866Z,100.00
2023-04-02T02:09:12.003Z,100.00
2023-04-02T02:11:38.918Z,100.00
2023-04-02T02:14:12.803Z,100.00
2023-04-02T02:16:42.089Z,100.00
2023-04-02T02:19:21.677Z,100.00
2023-04-02T02:21:58.371Z,100.00
2023-04-02T02:24:28.436Z,100.00
2023-04-02T02:27:16.364Z,100.00
2023-04-02T02:29:43.575Z,100.00
2023-04-02T02:32:12.658Z,100.00
2023-04-02T02:34:43.409Z,100.00
2023-04-02T02:37:19.046Z,100.00
2023-04-02T02:39:51.482Z,100.00
2023-04-02T02:42:30.544Z,100.00
2023-04-02T02:44:58.362Z,100.00
2023-04-02T02:47:38.069Z,100.00
2023-04-02T02:50:12.086Z,100.00
2023-04-02T02:52:39.060Z,100.00
2023-04-02T02:55:12.941Z,100.00
2023-04-02T02:57:46.972Z,100.00
2023-04-02T03:00:16.125Z,100.00
2023-04-02T03:02:44.310Z,100.00
2023-04-02T03:05:17.497Z,100.00
2023-04-02T03:07:44.036Z,100.00
2023-04-02T03:10:33.167Z,100.00
2023-04-02T03:13:13.042Z,100.00
2023-04-02T03:15:57.229Z,100.00
2023-04-02T03:18:31.388Z,100.00
2023-04-02T03:21:09.789Z,100.00
2023-04-02T03:23:43.699Z,100.00
2023-04-02T03:26:13.489Z,100.00
2023-04-02T03:28:43.536Z,100.00
2023-04-02T03:31:22.688Z,100.00
2023-04-02T03:33:56.738Z,100.00
2023-04-02T03:36:34.484Z,100.00
2023-04-02T03:39:17.975Z,100.00
2023-04-02T03:42:03.709Z,100.00
2023-04-02T03:44:37.906Z,100.00
2023-04-02T03:47:12.912Z,100.00
2023-04-02T03:49:52.342Z,100.00
2023-04-02T03:52:29.367Z,100.00
2023-04-02T03:54:58.549Z,100.00
2023-04-02T03:57:31.896Z,100.00
2023-04-02T04:00:02.357Z,100.00
2023-04-02T04:02:34.841Z,100.00
2023-04-02T04:05:03.154Z,100.00
2023-04-02T04:07:43.391Z,100.00
2023-04-02T04:10:18.252Z,100.00
2023-04-02T04:12:48.204Z,100.00
2023-04-02T04:15:36.233Z,100.00
2023-04-02T04:18:21.453Z,100.00
2023-04-02T04:20:56.932Z,100.00
2023-04-02T04:23:37.503Z,100.00
2023-04-02T04:26:19.720Z,100.00
2023-04-02T04:29:05.728Z,100.00
2023-04-02T04:31:39.455Z,100.00
2023-04-02T04:34:12.992Z,100.00
2023-04-02T04:36:54.238Z,100.00
2023-04-02T04:39:29.621Z,100.00
2023-04-02T04:42:00.594Z,100.00
2023-04-02T04:44:44.951Z,100.00
2023-04-02T04:47:26.956Z,100.00
2023-04-02T04:50:15.876Z,100.00
2023-04-02T04:52:43.859Z,100.00
2023-04-02T04:55:27.573Z,100.00
2023-04-02T04:58:03.902Z,100.00
2023-04-02T05:00:53.319Z,100.00
2023-04-02T05:03:41.055Z,100.00
2023-04-02T05:06:18.746Z,100.00
2023-04-02T05:08:49.041Z,100.00
2023-04-02T05:11:28.046Z,100.00
2023-04-02T05:13:59.563Z,100.00
2023-04-02T05:17:00.426Z,100.00
2023-04-02T05:19:47.742Z,100.00
2023-04-02T05:22:31.431Z,100.00
2023-04-02T05:25:28.457Z,100.00
2023-04-02T05:28:31.258Z,100.00
2023-04-02T05:31:08.876Z,100.00
2023-04-02T05:33:37.501Z,100.00
2023-04-02T05:36:09.343Z,100.00
2023-04-02T05:38:38.783Z,100.00
2023-04-02T05:41:18.437Z,100.00
2023-04-02T05:43:51.007Z,100.00
2023-04-02T05:46:24.085Z,100.00
2023-04-02T05:48:56.637Z,100.00
2023-04-02T05:51:30.579Z,100.00
2023-04-02T05:54:00.894Z,100.00
2023-04-02T05:56:32.163Z,100.00
2023-04-02T05:59:25.610Z,100.00
2023-04-02T06:02:04.251Z,100.00
2023-04-02T06:04:46.374Z,100.00
2023-04-02T06:07:15.739Z,100.00
2023-04-02T06:09:49.158Z,100.00
2023-04-02T06:12:37.665Z,100.00
2023-04-02T06:15:06.680Z,100.00
2023-04-02T06:17:53.708Z,100.00
2023-04-02T06:20:21.178Z,100.00
2023-04-02T06:23:02.300Z,100.00
2023-04-02T06:25:33.705Z,100.00
2023-04-02T06:28:03.958Z,100.00
2023-04-02T06:30:34.896Z,100.00
2023-04-02T06:33:01.427Z,100.00
2023-04-02T06:35:28.142Z,100.00
2023-04-02T06:37:57.391Z,100.00
2023-04-02T06:40:44.063Z,100.00
2023-04-02T06:43:35.659Z,100.00
2023-04-02T06:46:08.689Z,100.00
2023-04-02T06:48:37.717Z,100.00
2023-04-02T06:51:08.368Z,100.00
2023-04-02T06:53:38.831Z,100.00
2023-04-02T06:56:19.538Z,100.00
2023-04-02T06:58:46.124Z,100.00
2023-04-02T07:01:19.633Z,100.00
2023-04-02T07:03:49.265Z,100.00
2023-04-02T07:06:19.710Z,100.00
2023-04-02T07:08:46.685Z,100.00
2023-04-02T07:11:21.208Z,100.00
2023-04-02T07:13:48.859Z,100.00
2023-04-02T07:16:21.002Z,100.00
2023-04-02T07:18:48.534Z,100.00
2023-04-02T07:21:14.849Z,100.00
2023-04-02T07:23:41.806Z,100.00
2023-04-02T07:26:12.827Z,100.00
2023-04-02T07:28:39.391Z,100.00
2023-04-02T07:31:15.590Z,100.00
2023-04-02T07:33:42.237Z,100.00
2023-04-02T07:36:14.021Z,100.00
2023-04-02T07:38:40.366Z,100.00
2023-04-02T07:41:07.281Z,100.00
2023-04-02T07:43:33.751Z,100.00
2023-04-02T07:46:00.731Z,100.00
2023-04-02T07:48:27.560Z,100.00
2023-04-02T07:50:53.873Z,100.00
2023-04-02T07:53:32.618Z,100.00
2023-04-02T07:56:02.031Z,100.00
2023-04-02T07:58:30.816Z,100.00
2023-04-02T08:00:58.765Z,100.00
2023-04-02T08:03:25.457Z,100.00
2023-04-02T08:05:54.101Z,100.00
2023-04-02T08:08:21.615Z,100.00
2023-04-02T08:10:49.122Z,100.00
2023-04-02T08:13:16.918Z,100.00
2023-04-02T08:15:43.843Z,100.00
2023-04-02T08:18:11.581Z,100.00
2023-04-02T08:20:38.184Z,100.00
2023-04-02T08:23:06.868Z,100.00
2023-04-02T08:25:33.453Z,100.00
2023-04-02T08:28:01.484Z,100.00
2023-04-02T08:30:27.838Z,100.00
2023-04-02T08:32:54.342Z,100.00
2023-04-02T08:35:20.795Z,100.00
2023-04-02T08:37:47.149Z,100.00
2023-04-02T08:40:38.727Z,100.00
2023-04-02T08:43:30.922Z,100.00
2023-04-02T08:46:06.540Z,100.00
2023-04-02T08:48:36.266Z,100.00
2023-04-02T08:51:04.709Z,100.00
2023-04-02T08:53:35.662Z,100.00
2023-04-02T08:56:17.548Z,100.00
2023-04-02T08:58:45.980Z,100.00
2023-04-02T09:01:32.769Z,100.00
2023-04-02T09:03:59.437Z,100.00
2023-04-02T09:06:27.742Z,100.00
2023-04-02T09:08:56.529Z,100.00
2023-04-02T09:11:54.950Z,100.00
2023-04-02T09:14:35.951Z,100.00
2023-04-02T09:17:08.889Z,100.00
2023-04-02T09:19:44.898Z,100.00
2023-04-02T09:22:27.007Z,100.00
2023-04-02T09:25:01.522Z,100.00
2023-04-02T09:27:31.389Z,100.00
2023-04-02T09:30:03.980Z,100.00
2023-04-02T09:32:39.770Z,100.00
2023-04-02T09:35:26.185Z,100.00
2023-04-02T09:38:18.209Z,100.00
2023-04-02T09:40:58.753Z,100.00
2023-04-02T09:43:28.013Z,100.00
2023-04-02T09:46:06.407Z,100.00
2023-04-02T09:48:55.665Z,100.00
2023-04-02T09:51:24.567Z,100.00
2023-04-02T09:54:06.820Z,100.00
2023-04-02T09:56:38.019Z,100.00
2023-04-02T09:59:21.734Z,100.00
2023-04-02T10:01:54.190Z,100.00
2023-04-02T10:04:39.062Z,100.00
2023-04-02T10:07:06.447Z,100.00
2023-04-02T10:09:36.246Z,100.00
2023-04-02T10:12:07.220Z,100.00
2023-04-02T10:14:38.519Z,100.00
2023-04-02T10:17:31.433Z,100.00
2023-04-02T10:20:11.698Z,100.00
2023-04-02T10:22:38.654Z,100.00
2023-04-02T10:25:14.452Z,100.00
2023-04-02T10:27:45.823Z,100.00
2023-04-02T10:30:23.978Z,100.00
2023-04-02T10:32:58.253Z,100.00
2023-04-02T10:36:01.894Z,100.00
2023-04-02T10:38:42.557Z,100.00
2023-04-02T10:41:26.817Z,100.00
2023-04-02T10:44:20.108Z,100.00
2023-04-02T10:47:28.441Z,100.00
2023-04-02T10:50:29.550Z,100.00
2023-04-02T10:53:14.301Z,100.00
2023-04-02T10:55:48.219Z,100.00
2023-04-02T10:58:25.583Z,100.00
2023-04-02T11:00:57.888Z,100.00
2023-04-02T11:03:34.987Z,100.00
2023-04-02T11:06:12.107Z,100.00
2023-04-02T11:08:43.582Z,100.00
2023-04-02T11:11:26.287Z,100.00
2023-04-02T11:13:58.608Z,100.00
2023-04-02T11:16:25.652Z,100.00
2023-04-02T11:19:16.827Z,100.00
2023-04-02T11:22:00.231Z,100.00
2023-04-02T11:24:58.149Z,100.00
2023-04-02T11:27:27.904Z,100.00
2023-04-02T11:30:14.237Z,100.00
2023-04-02T11:32:43.033Z,100.00
2023-04-02T11:35:31.283Z,100.00
2023-04-02T11:38:00.696Z,100.00
2023-04-02T11:40:57.089Z,100.00
2023-04-02T11:43:32.604Z,100.00
2023-04-02T11:46:25.408Z,100.00
2023-04-02T11:48:54.550Z,100.00
2023-04-02T11:51:43.521Z,100.00
2023-04-02T11:54:25.550Z,100.00
2023-04-02T11:57:00.745Z,100.00
2023-04-02T11:59:35.946Z,100.00
2023-04-02T12:02:02.337Z,100.00
2023-04-02T12:04:37.836Z,100.00
2023-04-02T12:07:06.901Z,100.00
2023-04-02T12:09:59.591Z,100.00
2023-04-02T12:12:27.480Z,100.00
2023-04-02T12:14:56.266Z,100.00
2023-04-02T12:17:36.867Z,100.00
2023-04-02T12:20:20.331Z,100.00
2023-04-02T12:22:50.575Z,100.00
2023-04-02T12:25:29.847Z,100.00
2023-04-02T12:28:11.386Z,100.00
2023-04-02T12:30:38.735Z,100.00
2023-04-02T12:33:33.395Z,100.00
2023-04-02T12:36:02.139Z,100.00
2023-04-02T12:38:33.336Z,100.00
2023-04-02T12:41:03.455Z,100.00
2023-04-02T12:43:31.867Z,100.00
2023-04-02T12:46:00.972Z,100.00
2023-04-02T12:48:29.146Z,100.00
2023-04-02T12:50:56.822Z,100.00
2023-04-02T12:53:32.444Z,100.00
2023-04-02T12:55:58.989Z,100.00
2023-04-02T12:58:36.008Z,100.00
2023-04-02T13:01:15.635Z,100.00
2023-04-02T13:03:42.166Z,100.00
2023-04-02T13:06:22.280Z,100.00
2023-04-02T13:08:48.969Z,100.00
2023-04-02T13:11:15.800Z,100.00
2023-04-02T13:13:45.841Z,100.00
2023-04-02T13:16:15.275Z,100.00
2023-04-02T13:18:43.261Z,100.00
2023-04-02T13:21:19.331Z,100.00
2023-04-02T13:23:46.471Z,100.00
2023-04-02T13:26:18.535Z,100.00
2023-04-02T13:29:15.386Z,100.00
2023-04-02T13:31:41.952Z,99.88
2023-04-02T13:34:08.383Z,100.00
2023-04-02T13:36:34.909Z,100.00
2023-04-02T13:39:01.282Z,100.00
2023-04-02T13:41:34.716Z,100.00
2023-04-02T13:44:03.091Z,100.00
2023-04-02T13:46:31.946Z,100.00
2023-04-02T13:48:58.768Z,99.35
2023-04-02T13:51:35.819Z,100.00
2023-04-02T13:54:03.777Z,100.00
2023-04-02T13:56:31.119Z,100.00
2023-04-02T13:58:57.520Z,100.00
2023-04-02T14:01:25.026Z,100.00
2023-04-02T14:03:54.223Z,100.00
2023-04-02T14:06:57.622Z,100.00
2023-04-02T14:09:38.982Z,100.00
2023-04-02T14:12:28.405Z,100.00
2023-04-02T14:15:15.592Z,100.00
2023-04-02T14:17:51.129Z,100.00
2023-04-02T14:20:17.840Z,100.00
2023-04-02T14:23:06.333Z,100.00
2023-04-02T14:25:39.148Z,100.00
2023-04-02T14:28:57.775Z,100.00
2023-04-02T14:31:33.951Z,100.00
2023-04-02T14:34:02.961Z,100.00
2023-04-02T14:36:38.145Z,99.65
2023-04-02T14:39:32.929Z,100.00
2023-04-02T14:42:09.211Z,100.00
2023-04-02T14:44:42.345Z,100.00
2023-04-02T14:47:17.531Z,100.00
2023-04-02T14:49:49.476Z,100.00
2023-04-02T14:52:21.354Z,100.00
2023-04-02T14:54:55.227Z,100.00
2023-04-02T14:57:32.373Z,100.00
2023-04-02T15:00:25.358Z,100.00
2023-04-02T15:03:19.315Z,100.00
2023-04-02T15:05:49.433Z,99.91
2023-04-02T15:08:20.784Z,100.00
2023-04-02T15:11:06.588Z,100.00
2023-04-02T15:13:43.819Z,99.52
2023-04-02T15:16:22.557Z,99.42
2023-04-02T15:18:55.051Z,100.00
2023-04-02T15:21:29.732Z,100.00
2023-04-02T15:24:04.497Z,100.00
2023-04-02T15:26:40.298Z,99.41
2023-04-02T15:29:40.562Z,99.65
2023-04-02T15:32:31.277Z,100.00
2023-04-02T15:35:16.469Z,99.70
2023-04-02T15:37:55.838Z,98.20
2023-04-02T15:40:35.514Z,100.00
2023-04-02T15:43:16.118Z,100.00
2023-04-02T15:45:53.360Z,99.66
2023-04-02T15:48:38.134Z,100.00
2023-04-02T15:51:35.803Z,99.10
2023-04-02T15:54:21.850Z,99.21
2023-04-02T15:57:24.472Z,98.32
2023-04-02T16:00:02.734Z,97.74
2023-04-02T16:03:06.666Z,98.75
2023-04-02T16:06:00.577Z,98.27
2023-04-02T16:08:45.777Z,96.61
2023-04-02T16:11:14.369Z,96.53
2023-04-02T16:13:42.209Z,96.84
2023-04-02T16:16:21.036Z,97.63
2023-04-02T16:18:59.219Z,96.04
2023-04-02T16:21:32.442Z,95.78
2023-04-02T16:23:59.113Z,96.63
2023-04-02T16:26:28.202Z,97.54
2023-04-02T16:29:07.415Z,97.05
2023-04-02T16:32:07.768Z,97.46
2023-04-02T16:34:52.938Z,97.31
2023-04-02T16:37:39.003Z,96.11
2023-04-02T16:40:57.185Z,96.24
2023-04-02T16:43:49.674Z,96.93
2023-04-02T16:46:54.506Z,95.53
2023-04-02T16:49:30.375Z,95.99
2023-04-02T16:52:19.479Z,96.75
2023-04-02T16:55:11.378Z,94.57
2023-04-02T16:57:57.643Z,94.71
2023-04-02T17:00:31.931Z,95.06
2023-04-02T17:02:58.359Z,95.26
2023-04-02T17:05:51.436Z,95.69
2023-04-02T17:08:24.163Z,94.53
2023-04-02T17:11:07.379Z,92.37
2023-04-02T17:13:41.468Z,92.70
2023-04-02T17:16:19.814Z,93.24
2023-04-02T17:18:58.221Z,92.58
2023-04-02T17:21:27.512Z,91.02
2023-04-02T17:24:02.674Z,91.33
2023-04-02T17:26:32.287Z,91.42
2023-04-02T17:29:05.712Z,92.31
2023-04-02T17:31:37.243Z,91.62
2023-04-02T17:34:13.647Z,89.45
2023-04-02T17:36:53.517Z,88.74
2023-04-02T17:39:35.467Z,89.04
2023-04-02T17:42:37.059Z,87.51
2023-04-02T17:45:19.607Z,89.73
2023-04-02T17:47:56.285Z,86.47
2023-04-02T17:50:25.608Z,88.02
2023-04-02T17:53:00.941Z,87.96
2023-04-02T17:55:54.469Z,87.41
2023-04-02T17:58:58.485Z,88.75
2023-04-02T18:01:30.356Z,87.18
2023-04-02T18:04:36.192Z,88.19
2023-04-02T18:07:24.140Z,87.95
2023-04-02T18:10:03.694Z,86.75
2023-04-02T18:12:56.828Z,85.55
2023-04-02T18:15:47.342Z,85.86
2023-04-02T18:18:35.196Z,84.09
2023-04-02T18:21:14.841Z,84.50
2023-04-02T18:24:02.184Z,82.62
2023-04-02T18:26:52.273Z,83.96
2023-04-02T18:29:51.144Z,82.84
2023-04-02T18:32:35.573Z,83.29
2023-04-02T18:35:44.294Z,85.25
2023-04-02T18:38:42.415Z,84.71
2023-04-02T18:41:46.207Z,84.60
2023-04-02T18:44:51.586Z,83.98
2023-04-02T18:48:08.590Z,83.00
2023-04-02T18:50:39.192Z,84.22
2023-04-02T18:53:21.636Z,83.55
2023-04-02T18:56:16.638Z,83.98
2023-04-02T18:58:56.693Z,82.85
2023-04-02T19:01:30.568Z,82.21
2023-04-02T19:04:03.726Z,82.72
2023-04-02T19:06:44.698Z,83.15
2023-04-02T19:09:16.730Z,85.03
2023-04-02T19:11:43.100Z,83.48
2023-04-02T19:14:16.521Z,81.95
2023-04-02T19:17:13.660Z,81.72
2023-04-02T19:19:51.828Z,82.84
2023-04-02T19:22:53.643Z,82.30
2023-04-02T19:25:35.683Z,83.75
2023-04-02T19:28:46.313Z,83.39
2023-04-02T19:31:31.384Z,82.63
2023-04-02T19:34:09.992Z,83.17
2023-04-02T19:36:45.731Z,81.99
2023-04-02T19:39:35.410Z,83.78
2023-04-02T19:42:28.381Z,84.11
2023-04-02T19:44:55.314Z,82.13
2023-04-02T19:47:22.413Z,82.54
2023-04-02T19:49:48.802Z,82.46
2023-04-02T19:52:15.358Z,82.18
2023-04-02T19:54:41.950Z,84.77
2023-04-02T19:57:13.814Z,83.52
2023-04-02T19:59:40.289Z,85.37
2023-04-02T20:02:10.219Z,83.97
2023-04-02T20:04:36.986Z,84.12
2023-04-02T20:07:03.438Z,83.15
2023-04-02T20:09:29.802Z,85.18
2023-04-02T20:11:56.190Z,85.71
2023-04-02T20:14:22.550Z,85.96
2023-04-02T20:16:48.906Z,84.52
2023-04-02T20:19:15.562Z,86.30
2023-04-02T20:21:42.089Z,84.52
2023-04-02T20:24:08.787Z,86.26
2023-04-02T20:26:36.178Z,86.16
2023-04-02T20:29:02.893Z,83.88
2023-04-02T20:31:29.395Z,83.12
2023-04-02T20:33:56.913Z,83.24
2023-04-02T20:36:24.646Z,82.54
2023-04-02T20:38:51.890Z,82.44
2023-04-02T20:41:18.995Z,82.43
2023-04-02T20:43:45.449Z,83.83
2023-04-02T20:46:12.681Z,82.54
2023-04-02T20:48:39.904Z,82.51
2023-04-02T20:51:08.473Z,83.42
2023-04-02T20:53:36.347Z,82.41
2023-04-02T20:56:07.700Z,83.56
2023-04-02T20:58:35.931Z,82.05
2023-04-02T21:01:29.670Z,82.16
2023-04-02T21:04:01.616Z,81.04
2023-04-02T21:06:30.691Z,79.78
2023-04-02T21:08:57.407Z,81.57
2023-04-02T21:11:24.216Z,80.22
2023-04-02T21:13:50.832Z,81.44
2023-04-02T21:16:20.701Z,82.62
2023-04-02T21:18:49.549Z,81.91
2023-04-02T21:21:17.098Z,83.20
2023-04-02T21:23:44.275Z,85.45
2023-04-02T21:26:16.245Z,85.04
2023-04-02T21:28:44.345Z,86.30
2023-04-02T21:31:16.900Z,86.85
2023-04-02T21:33:48.505Z,86.38
2023-04-02T21:36:16.208Z,87.53
2023-04-02T21:38:44.625Z,85.32
2023-04-02T21:41:15.370Z,84.96
2023-04-02T21:43:42.950Z,85.64
2023-04-02T21:46:10.319Z,86.59
2023-04-02T21:48:37.390Z,85.41
2023-04-02T21:51:09.462Z,86.21
2023-04-02T21:53:36.146Z,87.03
2023-04-02T21:56:04.622Z,88.17
2023-04-02T21:58:31.389Z,86.65
2023-04-02T22:00:58.897Z,87.61
2023-04-02T22:03:31.653Z,87.00
2023-04-02T22:06:07.245Z,86.80
2023-04-02T22:08:35.501Z,87.42
2023-04-02T22:11:13.154Z,90.86
2023-04-02T22:13:40.921Z,91.76
2023-04-02T22:16:16.067Z,91.53
2023-04-02T22:18:43.651Z,91.89
2023-04-02T22:21:11.492Z,91.05
2023-04-02T22:23:39.028Z,91.19
2023-04-02T22:26:07.085Z,91.83
2023-04-02T22:28:34.333Z,93.22
2023-04-02T22:31:27.885Z,91.86
2023-04-02T22:33:56.252Z,91.51
2023-04-02T22:36:24.098Z,90.12
2023-04-02T22:38:51.051Z,91.90
2023-04-02T22:41:21.377Z,92.12
2023-04-02T22:43:48.305Z,92.38
2023-04-02T22:46:16.396Z,92.25
2023-04-02T22:48:44.055Z,91.19
2023-04-02T22:51:12.040Z,92.10
2023-04-02T22:53:39.335Z,92.07
2023-04-02T22:56:11.846Z,96.29
2023-04-02T22:58:38.848Z,95.87
2023-04-02T23:01:32.428Z,94.19
2023-04-02T23:03:59.276Z,96.94
2023-04-02T23:06:26.729Z,97.00
2023-04-02T23:08:53.278Z,97.58
2023-04-02T23:11:24.627Z,97.56
2023-04-02T23:13:52.643Z,98.69
2023-04-02T23:16:19.980Z,98.05
2023-04-02T23:18:48.047Z,99.77
2023-04-02T23:21:15.929Z,100.00
2023-04-02T23:23:42.312Z,100.00
2023-04-02T23:26:17.418Z,100.00
2023-04-02T23:28:44.456Z,99.25
2023-04-02T23:31:14.027Z,98.15
2023-04-02T23:33:40.476Z,97.20
2023-04-02T23:36:09.029Z,96.84
2023-04-02T23:38:35.643Z,99.10
2023-04-02T23:41:02.070Z,98.29
2023-04-02T23:43:28.424Z,97.51
2023-04-02T23:45:55.071Z,97.57
2023-04-02T23:48:21.523Z,98.01
2023-04-02T23:50:48.012Z,97.41
2023-04-02T23:53:16.355Z,99.30
2023-04-02T23:55:42.772Z,98.60
2023-04-02T23:58:09.114Z,97.85
